Tiempo atmosférico en la estación meteorológica de Bielsa, Huesca (990 m.)



Fecha
DESCASC
Temp. máxima en grados centígrados (hora)
DESCASC
Temp. mínima en grados centígrados (hora)
DESCASC
Temp. media en grados centígrados
DESCASC
Racha de viento máxima en m/sg (hora)
DESCASC
Velocidad máxima media en intervalos de 10 minutos(hora)
DESCASC
Precipitaciones diarias en mm
DESCASC
Precipitaciones de 00:00 a 06:00 en mm
DESCASC
Precipitaciones de 06:00 a 12:00 en mm
DESCASC
Precipitaciones de 12:00 a 18:00 en mm
DESCASC
Precipitaciones de 18:00 a 24:00 en mm
DESCASC
28-02-2021 5.6 (15:10) 0.3 (03:10) 2.9 6.39 (08:40) 3.06 (01:40) 6.4 0 4.4 2 0
27-02-2021 17.5 (13:50) 0.4 (05:20) 9 13.33 (21:00) 6.39 (20:40) 0 0 0 0 0
26-02-2021 17.3 (15:10) 0.5 (07:30) 8.9 8.33 (14:50) 3.33 (13:00) 0 0 0 0 0
25-02-2021 14.9 (15:30) -0.7 (-00:0) 7.1 6.67 (12:50) 2.5 (15:00) 0 0 0 0 0
24-02-2021 17.3 (15:00) 1.2 (00:00) 9.2 7.78 (13:10) 3.89 (13:10) 0 0 0 0 0
23-02-2021 11 (13:20) 2.8 (00:00) 6.9 7.5 (15:20) 2.78 (13:40) 1.4 1.4 0 0 0
22-02-2021 7.1 (07:10) 4.2 (00:00) 5.6 9.17 (03:20) 5 (03:20) 29 6 10.4 8.2 4.4
21-02-2021 15 (14:20) 1.5 (00:00) 8.3 12.22 (15:50) 5.56 (12:50) 2.2 0 0 0 2.2
20-02-2021 15.5 (15:30) 0.3 (00:00) 7.9 8.89 (16:10) 3.61 (11:40) 0 0 0 0 0
19-02-2021 15 (13:20) 0.2 (00:00) 7.6 8.06 (13:10) 3.33 (13:20) 0 0 0 0 0
18-02-2021 16.6 (14:30) 1.2 (00:00) 8.9 12.22 (12:10) 5 (13:20) 0 0 0 0 0
17-02-2021 14.2 (14:50) 0.7 (00:00) 7.4 6.67 (16:30) 2.78 (20:00) 0 0 0 0 0
16-02-2021 14.2 (15:10) -1.2 (-00:0) 6.5 8.89 (14:10) 4.17 (14:40) 0 0 0 0 0
15-02-2021 10.3 (13:40) 3.5 (00:00) 6.9 6.94 (15:40) 2.78 (16:20) 0 0 0 0 0
14-02-2021 12.2 (14:40) -1.9 (-00:0) 5.1 8.89 (16:50) 3.33 (13:50) 0 0 0 0 0
13-02-2021 14.7 (14:50) 2.6 (00:00) 8.6 15 (01:00) 6.11 (01:00) 0 0 0 0 0
12-02-2021 9.6 (14:00) 1.5 (00:00) 5.6 13.89 (23:59) 6.11 (22:30) 4.2 0 1.8 2 0.4
11-02-2021 9.3 (14:10) -1.9 (-00:0) 3.7 5.83 (08:10) 2.22 (06:30) 0 0 0 0 0
10-02-2021 10.3 (14:10) -0.7 (-00:0) 4.8 5.83 (14:50) 2.78 (14:50) 14.6 6 7.4 1.2 0
09-02-2021 2.9 (13:10) -0.4 (00:00) 1.3 8.89 (12:40) 3.61 (12:20) 14 0 2.8 10.6 0.6
08-02-2021 5.6 (17:20) -0.2 (00:00) 2.7 8.33 (14:00) 3.33 (14:00) 1.8 0 0.8 1 0
07-02-2021 9.9 (14:40) 1.5 (00:00) 5.7 10.83 (13:20) 5.28 (07:50) 0 0 0 0 0
06-02-2021 8.1 (14:00) 4.9 (00:00) 6.5 8.61 (10:50) 3.33 (05:50) 14.6 0.4 6.2 5.2 2.8
05-02-2021 16.7 (12:50) 5 (00:00) 10.9 7.78 (03:50) 4.17 (04:00) 0.8 0.8 0 0 0
04-02-2021 14.4 (14:10) 5.3 (00:00) 9.8 6.67 (15:00) 2.78 (13:50) 0 0 0 0 0
03-02-2021 12 (15:20) 0.7 (00:00) 6.3 5.83 (15:00) 2.78 (19:10) 0 0 0 0 0
02-02-2021 15.1 (14:10) 2.2 (00:00) 8.7 8.06 (12:40) 2.78 (12:40) 0 0 0 0 0
01-02-2021 11.9 (13:30) 3.3 (00:00) 7.6 15.28 (16:30) 6.67 (15:30) 4.6 4.4 0.2 0 0
31-01-2021 11.8 (12:30) 1.2 (00:00) 6.5 12.5 (14:00) 4.72 (11:30) 5 1.8 2.4 0 0.8

Gráficas

Temp. máximas Temp. mínimas Temp. medias Precipitaciones Rachas de viento máximas Velocidades máximas media en intervalos de 10 minutos

Datos horarios

Fecha y hora oficial Temperatura (ºC) Velocidad del viento (km/h) Dirección del viento Racha (km/h) Dirección de racha Precipitación (mm) Presión (hPa) Tendencia (hPa) Humedad (%)
2021-03-01 23:00:00 4.3 0 Calma 14 Nordeste 0 911.3 0.9 94
2021-03-01 22:00:00 4.8 3 Norte 14 Nordeste 0 911.2 1.4 92
2021-03-01 21:00:00 5.8 3 Este 10 Oeste 0 910.9 1.6 88
2021-03-01 20:00:00 5.9 4 Oeste 13 Nordeste 0 910.4 1.4 88
2021-03-01 19:00:00 7.5 2 Sur 18 Este 0 909.8 0.9 79
2021-03-01 18:00:00 8.6 6 Este 18 Este 0 909.3 0.2 73
2021-03-01 17:00:00 9.2 8 Sudeste 20 Este 0 909 -0.2 70
2021-03-01 16:00:00 10 6 Sudeste 22 Este 0 908.9 -0.9 66
2021-03-01 15:00:00 9.7 7 Sudeste 23 Sudeste 0 909.1 -- 67
2021-03-01 14:00:00 10.4 8 Sudeste 22 Sudeste 0 909.2 -- 63
2021-03-01 13:00:00 10.5 9 Sudeste 23 Sur 0 909.8 -- 63
2021-03-01 12:00:00 9.2 3 Sudeste 15 Noroeste 0 910.2 -- 64
2021-03-01 11:00:00 5.5 9 Norte 17 Noroeste 0 910.6 -- 76
2021-03-01 10:00:00 2.3 0 Calma 17 Este 0 911.3 -- 97
2021-03-01 09:00:00 0.5 3 Noroeste 15 Norte 0 911.5 -- 98
2021-03-01 08:00:00 -0.1 3 Noroeste 17 Nordeste 0 911.3 -- 98
2021-03-01 07:00:00 -1 2 Noroeste 15 Nordeste 0 910.8 -- 98
2021-03-01 06:00:00 -0.7 0 Calma 14 Nordeste 0 910.3 -- 98
2021-03-01 05:00:00 -0.5 0 Calma 15 Este 0 910.4 -- 98
2021-03-01 04:00:00 -0.2 2 Noroeste 15 Este 0 910.4 -- 98
2021-03-01 03:00:00 0.2 4 Noroeste 14 Este 0 910.7 -- 98
2021-03-01 02:00:00 0.4 0 Calma 15 Este 0 910.6 -- 97
2021-03-01 01:00:00 0.8 0 Calma 16 Nordeste 0 910.6 -- 97
2021-03-01 00:00:00 1.5 0 Calma 15 Este 0 910.6 -- 96
2021-02-28 23:00:00 2.6 3 Noroeste 13 Norte 0 910.6 -- 96
2021-02-28 22:00:00 2.8 2 Oeste 14 Nordeste 0 910.3 -- 96
2021-02-28 21:00:00 3.1 2 Norte 15 Nordeste 0 909.9 -- 95
2021-02-28 20:00:00 3.5 2 Sudeste 17 Este 0 909.9 -- 94
2021-02-28 19:00:00 3.8 3 Norte 14 Nordeste 0 909.6 -- 93
2021-02-28 18:00:00 4.1 4 Noroeste 17 Norte 0.2 909.2 -- 91
2021-02-28 17:00:00 4.3 4 Noroeste 17 Nordeste 0 909.1 -- 89
2021-02-28 16:00:00 4.7 6 Norte 15 Este 0 909 -- 89
2021-02-28 15:00:00 5.4 3 Este 16 Nordeste 1.8 909 -- 90
2021-02-28 14:00:00 4.7 6 Norte 13 Norte 0 909.3 -- 84
2021-02-28 13:00:00 4.1 5 Noroeste 14 Nordeste 0 909.7 -- 87
2021-02-28 12:00:00 2.3 3 Noroeste 14 Nordeste 1.2 910 -- 95
2021-02-28 11:00:00 1.8 3 Sur 15 Este 1.6 909.8 -- 94
2021-02-28 10:00:00 1.9 0 Calma 16 Norte 1.6 909.5 -- 91
2021-02-28 09:00:00 2.6 8 Norte 23 Noroeste 0 909.2 -- 87
2021-02-28 08:00:00 2 6 Norte 18 Norte 0 908.7 -- 81
2021-02-28 07:00:00 0.9 0 Calma 17 Este 0 908.7 -- 84
2021-02-28 06:00:00 1.4 2 Oeste 15 Nordeste 0 908.9 -- 82
2021-02-28 05:00:00 1 3 Noroeste 14 Nordeste 0 908.9 -- 83
2021-02-28 04:00:00 1 2 Oeste 20 Norte 0 909.3 -- 77
2021-02-28 03:00:00 0.4 0 Calma 16 Nordeste 0 910.1 -- 81
2021-02-28 02:00:00 1.3 5 Noroeste 22 Norte 0 910.1 -- 75
2021-02-28 01:00:00 0.4 2 Noroeste 16 Nordeste 0 909.7 -- 82
2021-02-28 00:00:00 1.6 4 Noroeste 15 Este 0 909.4 -- 75
2021-02-27 23:00:00 3.2 2 Sudeste 16 Nordeste 0 909.4 -- 65
2021-02-27 22:00:00 5.5 5 Noroeste 38 Noroeste 0 909 -- 53
2021-02-27 21:00:00 8.7 21 Noroeste 48 Noroeste 0 908.6 -- 40
2021-02-27 20:00:00 9.6 13 Noroeste 29 Noroeste 0 908.6 -- 33
2021-02-27 19:00:00 9.7 8 Norte 28 Noroeste 0 908.6 -- 35
2021-02-27 18:00:00 11.9 10 Noroeste 29 Noroeste 0 908.1 -- 26
2021-02-27 17:00:00 13.6 13 Noroeste 37 Noroeste 0 908 -- 21
2021-02-27 16:00:00 15 14 Noroeste 38 Noroeste 0 907.9 -- 16
2021-02-27 15:00:00 16.9 17 Noroeste -- -- -- 908.4 -- 15
2021-02-27 14:00:00 17.1 19 Noroeste 42 Noroeste 0 908.9 -- 14
2021-02-27 13:00:00 17.1 17 Noroeste 40 Oeste 0 909.8 -- 13
2021-02-27 12:00:00 15.9 16 Noroeste 37 Noroeste 0 910.4 -- 15
2021-02-27 11:00:00 14.6 13 Noroeste 27 Noroeste 0 910.7 -- 20
2021-02-27 10:00:00 5.4 0 Calma 14 Nordeste 0 910.9 -- 70
2021-02-27 09:00:00 0.9 2 Norte 16 Nordeste 0 911.2 -- 85
2021-02-27 08:00:00 0.8 2 Norte 16 Norte 0 911.3 -- 81
2021-02-27 07:00:00 1.3 4 Noroeste 15 Nordeste 0 911.5 -- 78
2021-02-27 06:00:00 1.1 3 Noroeste 15 Nordeste 0 911.9 -- 80
2021-02-27 05:00:00 0.6 3 Noroeste 13 Nordeste 0 912.4 -- 85
2021-02-27 04:00:00 0.9 2 Noroeste 15 Nordeste 0 912.7 -- 85
2021-02-27 03:00:00 1.4 5 Noroeste 13 Nordeste 0 913.1 -- 83
2021-02-27 02:00:00 1.6 3 Noroeste 14 Nordeste 0 913.5 -- 87
2021-02-27 01:00:00 2.1 3 Noroeste 14 Nordeste 0 913.8 -- 85
2021-02-27 00:00:00 2.9 4 Noroeste 14 Nordeste 0 914 -- 83
2021-02-26 23:00:00 3.5 5 Noroeste 14 Nordeste 0 914.3 -- 80
2021-02-26 22:00:00 3.9 3 Noroeste 12 Nordeste 0 914 -- 81
2021-02-26 21:00:00 4.8 3 Noroeste 15 Nordeste 0 914 -- 79
2021-02-26 20:00:00 5.8 4 Noroeste 9 Noroeste 0 914 -- 77
2021-02-26 19:00:00 7.2 3 Noroeste 14 Nordeste 0 913.8 -- 75
2021-02-26 18:00:00 9.4 2 Noroeste 10 Sudoeste 0 913.4 -- 67
2021-02-26 17:00:00 10.8 3 Noroeste 10 Sudeste 0 913 -- 62
2021-02-26 16:00:00 14.2 4 Sur 26 Este 0 913.1 -- 50
2021-02-26 15:00:00 17.1 8 Sudeste 30 Sudeste 0 913.5 -- 28
2021-02-26 14:00:00 16.2 10 Sur 27 Sur 0 913.8 -- 30
2021-02-26 13:00:00 15.2 12 Sur 25 Sudeste 0 914.6 -- 30
2021-02-26 12:00:00 13.5 8 Este 17 Este 0 915 -- 37
2021-02-26 11:00:00 10.5 0 Calma 15 Nordeste 0 915.2 -- 54
2021-02-26 10:00:00 5 2 Norte 16 Este 0 915.7 -- 79
2021-02-26 09:00:00 2.2 3 Sur 14 Nordeste 0 915.8 -- 87
2021-02-26 08:00:00 0.7 4 Noroeste 13 Nordeste 0 915.8 -- 92
2021-02-26 07:00:00 0.7 3 Noroeste 14 Nordeste 0 915.8 -- 91
2021-02-26 06:00:00 0.9 2 Norte 14 Nordeste 0 915.8 -- 90
2021-02-26 05:00:00 1.3 3 Noroeste 15 Nordeste 0 915.7 -- 90
2021-02-26 04:00:00 1.6 4 Noroeste -- -- -- 915.9 -- 88
2021-02-26 03:00:00 1.8 4 Noroeste 13 Nordeste 0 916.1 -- 91
2021-02-26 02:00:00 2.1 4 Noroeste 15 Noroeste 0 916.2 -- 89
2021-02-26 01:00:00 2.6 3 Oeste 13 Nordeste 0 916.5 -- 89
2021-02-26 00:00:00 3 2 Noroeste 14 Nordeste 0 916.5 -- 89
2021-02-25 23:00:00 3.5 4 Oeste 11 Norte 0 916.2 -- 87
2021-02-25 22:00:00 3.8 3 Noroeste 14 Nordeste 0 915.9 -- 88
2021-02-25 21:00:00 4.6 0 Calma 14 Nordeste 0 915.5 -- 86
2021-02-25 20:00:00 5.8 4 Noroeste 10 Noroeste 0 915.1 -- 83
2021-02-25 19:00:00 7.6 3 Noroeste 8 Noroeste 0 914.8 -- 80
2021-02-25 18:00:00 9.8 3 Noroeste 8 Noroeste 0 913.9 -- 72
2021-02-25 17:00:00 11.7 3 Noroeste 14 Este 0 913.4 -- 63
2021-02-25 16:00:00 14.4 5 Este 23 Este 0 913.5 -- 47
2021-02-25 15:00:00 14.2 9 Sudeste 22 Sudeste 0 913.8 -- 45
2021-02-25 14:00:00 14.7 7 Sudeste 23 Sudeste 0 914.3 -- 49
2021-02-25 13:00:00 13.1 7 Sudeste 24 Sudeste 0 914.9 -- 50
2021-02-25 12:00:00 10.9 8 Sudeste 21 Sudeste 0 915.4 -- 53
2021-02-25 11:00:00 8.1 4 Sudeste 15 Este 0 915.1 -- 58
2021-02-25 10:00:00 3.7 6 Noroeste 14 Nordeste 0 915.4 -- 73
2021-02-25 09:00:00 0.3 0 Calma 22 Noroeste 0 915.7 -- 91
2021-02-25 08:00:00 -0.7 0 Calma 14 Nordeste 0 915.5 -- 94
2021-02-25 07:00:00 -0.6 3 Oeste 17 Oeste 0 915.4 -- 96
2021-02-25 06:00:00 -0.2 4 Noroeste 17 Norte 0 915.1 -- 96
2021-02-25 05:00:00 0 0 Calma 15 Este 0 915.2 -- 95
2021-02-25 04:00:00 0.6 3 Noroeste 14 Nordeste 0 915.3 -- 95
2021-02-25 03:00:00 1.1 3 Norte 17 Este 0 915.6 -- 95
2021-02-25 02:00:00 1.9 4 Noroeste 16 Noroeste 0 915.8 -- 92
2021-02-25 01:00:00 2.5 4 Noroeste 18 Norte 0 916.2 -- 93
2021-02-25 00:00:00 2.9 0 Calma 13 Norte 0 916.4 -- 91
2021-02-24 23:00:00 3.7 5 Noroeste 14 Noroeste 0 916.6 -- 90
2021-02-24 22:00:00 4.2 4 Noroeste 13 Nordeste 0 916.8 -- 90
2021-02-24 21:00:00 4.8 4 Noroeste 11 Noroeste 0 916.5 -- 88
2021-02-24 20:00:00 5.9 5 Noroeste 13 Noroeste 0 916.3 -- 86
2021-02-24 19:00:00 7.2 5 Noroeste 10 Norte 0 916 -- 85
2021-02-24 18:00:00 8.7 4 Noroeste 11 Noroeste 0 915.7 -- 80
2021-02-24 17:00:00 10.2 2 Noroeste 5 Norte 0 915.7 -- 77
2021-02-24 16:00:00 13.3 2 Sur 14 Sudeste 0 916.3 -- 65
2021-02-24 15:00:00 17.2 6 Sudeste 23 Sudeste 0 916.7 -- 44
2021-02-24 14:00:00 16.5 9 Sudeste 28 Sur 0 917.5 -- 45
2021-02-24 13:00:00 15.5 10 Sudeste 27 Sur 0 918 -- 48
2021-02-24 12:00:00 13.1 5 Sudeste 13 Este 0 918.6 -- 58
2021-02-24 11:00:00 9.1 0 Calma 14 Este 0 919.1 -- 81
2021-02-24 10:00:00 4.5 0 Calma 14 Sudeste 0 919.7 -- 97
2021-02-24 09:00:00 1.7 2 Noroeste 13 Nordeste 0 920 -- 98
2021-02-24 08:00:00 1.2 2 Noroeste 11 Norte 0 919.8 -- 98
2021-02-24 07:00:00 1.4 2 Noroeste 13 Este 0 919.9 -0.3 98
2021-02-24 06:00:00 1.7 5 Noroeste 15 Sudoeste 0 919.9 -0.9 98
2021-02-24 05:00:00 1.5 3 Oeste 8 Oeste 0 920 -- 98
2021-02-24 04:00:00 1.4 0 Calma 14 Nordeste 0 920.2 -- 98
2021-02-24 03:00:00 1.6 0 Calma 14 Nordeste 0 920.8 -- 98
2021-02-24 02:00:00 1.9 0 Calma 13 Nordeste 0 921 0.1 97
2021-02-24 01:00:00 2.4 2 Noroeste 5 Oeste 0 920.9 -- 97
2021-02-24 00:00:00 2.8 0 Calma 14 Nordeste 0 920.9 -- 97
2021-02-23 23:00:00 3.3 0 Calma 14 Nordeste 0 920.9 -- 96
2021-02-23 22:00:00 4 3 Noroeste 6 Oeste 0 920.8 -- 96
2021-02-23 21:00:00 4.8 3 Noroeste 14 Nordeste 0 920.4 1.6 95
2021-02-23 20:00:00 6.3 2 Noroeste 5 Noroeste 0 920 -- 92
2021-02-23 19:00:00 8.4 3 Noroeste 11 Este 0 919.3 -- 89
2021-02-23 18:00:00 10.6 4 Este 14 Este 0 918.8 -- 79
2021-02-23 17:00:00 10.5 5 Sudeste 19 Sur 0 918.5 -- 79
2021-02-23 16:00:00 10.7 6 Sudeste 27 Sudeste 0 918.6 -- 77
2021-02-23 15:00:00 10.7 8 Sudeste 22 Sudeste 0 918.6 -- 75
2021-02-23 14:00:00 10.5 9 Sudeste 22 Sur 0 918.5 -- 76
2021-02-23 13:00:00 10.1 9 Sur 21 Sur 0 918.5 -- 79
2021-02-23 12:00:00 9.7 6 Sudeste 16 Sudeste 0 918.4 -- 81
2021-02-23 11:00:00 7.5 2 Sudeste 15 Nordeste 0 918.1 -- 92
2021-02-23 10:00:00 5.7 3 Sur 14 Nordeste 0 917.9 -- 97
2021-02-23 09:00:00 4.3 2 Oeste 12 Norte 0 917.2 -- 97
2021-02-23 08:00:00 3.5 4 Noroeste 13 Nordeste 0 916.1 -- 97
2021-02-23 07:00:00 3.9 3 Noroeste 9 Noroeste 0 915.6 -- 97
2021-02-23 06:00:00 4 0 Calma 14 Nordeste 0 915.1 -- 97
2021-02-23 05:00:00 4.1 2 Norte 14 Nordeste 0.2 914.4 -- 97
2021-02-23 04:00:00 4.1 2 Noroeste 13 Nordeste 0 914 -- 97
2021-02-23 03:00:00 4.4 8 Noroeste 18 Norte 0.4 913.8 -- 96
2021-02-23 02:00:00 4.6 2 Noroeste 14 Sudoeste 0.4 913.4 -- 97
2021-02-23 01:00:00 4.7 0 Calma 16 Sudoeste 0.4 912.7 -- 97
2021-02-23 00:00:00 4.8 0 Calma 5 Este 0.4 911.8 -- 97
2021-02-22 23:00:00 4.9 0 Calma 5 Noroeste 0.8 911.1 -- 97
2021-02-22 22:00:00 5 0 Calma 14 Nordeste 2.2 910.4 -- 96
2021-02-22 21:00:00 5.1 0 Calma 14 Nordeste 0.6 909.4 -- 96
2021-02-22 20:00:00 5.2 3 Sudeste 10 Este 0.4 908.7 -- 96
2021-02-22 19:00:00 5.4 3 Sudeste 6 Sudeste 0 907.4 -- 95
2021-02-22 18:00:00 5.7 0 Calma 14 Nordeste 0.4 906.3 -- 93
2021-02-22 17:00:00 5.7 2 Sudeste 14 Nordeste 1 905.7 -- 93
2021-02-22 16:00:00 5.5 6 Norte 16 Nordeste 0.8 904.7 -- 90
2021-02-22 15:00:00 5.2 5 Norte 23 Norte 1.4 904.1 -- 92
2021-02-22 14:00:00 4.8 12 Noroeste 28 Norte 1.8 903.6 -- 90
2021-02-22 13:00:00 4.4 9 Norte 24 Norte 2.8 903.5 -- 94
2021-02-22 12:00:00 4.3 9 Norte 29 Noroeste 1.8 903 -- 93
2021-02-22 11:00:00 5.3 8 Norte 21 Norte 3.6 902.2 -- 92
2021-02-22 10:00:00 6.1 3 Noroeste 15 Oeste 3.6 901.3 -- 95
2021-02-22 09:00:00 6.4 2 Noroeste 13 Nordeste 1 900.3 -- 96
2021-02-22 08:00:00 6.5 3 Noroeste 16 Oeste 0 898.7 -- 96
2021-02-22 07:00:00 7 4 Sudeste 20 Norte 0.4 897.7 0.5 94
2021-02-22 06:00:00 6.3 6 Noroeste 22 Norte 0.2 896.3 -- 96
2021-02-22 05:00:00 5 4 Norte 17 Nordeste 0.6 896.3 -- 96
2021-02-22 04:00:00 5.2 3 Oeste 33 Norte 0.2 897.2 -- 91
2021-02-22 03:00:00 4.9 14 Norte 29 Norte 1 897.7 -- 91
2021-02-22 02:00:00 5.1 12 Norte 28 Noroeste 1.8 898.1 -- 90
2021-02-22 01:00:00 6 16 Noroeste 30 Noroeste 2.2 898.1 -- 89
2021-02-22 00:00:00 6.8 11 Noroeste 23 Noroeste 1.8 898.3 -- 89
2021-02-21 23:00:00 8.2 6 Norte 22 Norte 0.4 898.4 -- 82
2021-02-21 22:00:00 9.7 5 Norte 18 Sudeste 0 897 0.5 72
2021-02-21 21:00:00 12.1 9 Sudeste 25 Este 0 896.9 -- 42
2021-02-21 20:00:00 9.8 4 Sur 12 Norte 0 896.9 -- 57
2021-02-21 19:00:00 11.5 0 Calma 13 Sudeste 0 896.5 -- 51
2021-02-21 18:00:00 13.4 8 Sudeste 27 Sur 0 896.1 -- 36
2021-02-21 17:00:00 14.2 12 Sudeste 33 Este 0 895.9 -- 32
2021-02-21 16:00:00 14.6 10 Sudeste 44 Sur 0 895.8 -- 32
2021-02-21 15:00:00 14.4 13 Sudeste 41 Este 0 896 -- 31
2021-02-21 14:00:00 14 10 Sudeste 26 Este 0 896.4 -- 32
2021-02-21 13:00:00 14 12 Sudeste 37 Este 0 897.3 -- 29
2021-02-21 12:00:00 12 7 Sudeste 27 Sudeste 0 898.1 -- 38
2021-02-21 11:00:00 10.3 9 Sudeste 31 Sur 0 898.4 -- 40
2021-02-21 10:00:00 9 12 Sudeste 31 Sudeste 0 899 -- 42
2021-02-21 09:00:00 4 4 Oeste 13 Noroeste 0 899.7 -- 73
2021-02-21 08:00:00 2 3 Norte 14 Nordeste 0 900.1 -- 81
2021-02-21 07:00:00 2.2 4 Noroeste 10 Noroeste 0 900.8 -- 78
2021-02-21 06:00:00 2.5 5 Noroeste 15 Noroeste 0 901.1 -- 76
2021-02-21 05:00:00 1.5 3 Noroeste 14 Nordeste 0 901.2 -- 82
2021-02-21 04:00:00 1.7 3 Norte 13 Nordeste 0 901.6 -- 81
2021-02-21 03:00:00 2.1 0 Calma 6 Este 0 902.4 -- 80
2021-02-21 02:00:00 2.9 3 Noroeste 6 Norte 0 902.8 -- 77
2021-02-21 01:00:00 3.8 3 Noroeste 8 Noroeste 0 903 -- 74
2021-02-21 00:00:00 5 3 Noroeste 16 Este 0 903.4 -- 71
2021-02-20 23:00:00 5.8 3 Este 12 Este 0 903.4 -- 66
2021-02-20 22:00:00 6.9 4 Sudeste 14 Sudeste 0 903.4 -- 59
2021-02-20 21:00:00 8.3 4 Sudeste 17 Sudeste 0 903.2 -- 52
2021-02-20 20:00:00 9 5 Este 13 Sur 0 903.2 -- 48
2021-02-20 19:00:00 10.3 2 Sudeste 20 Sudeste 0 902.7 -- 50
2021-02-20 18:00:00 13.2 5 Sudeste 28 Este 0 902.2 -- 34
2021-02-20 17:00:00 14.2 6 Sudeste 32 Este 0 902.3 -- 30
2021-02-20 16:00:00 15.1 10 Sudeste 30 Este 0 902.4 -- 32
2021-02-20 15:00:00 14.2 12 Este 23 Sudeste 0 903.1 -- 33
2021-02-20 14:00:00 14.3 8 Sudeste 31 Este 0 903.9 -- 30
2021-02-20 13:00:00 14.9 8 Sudeste 24 Sudeste 0 904.3 -- 31
2021-02-20 12:00:00 13.9 10 Sudeste 27 Este 0 904.7 -- 36
2021-02-20 11:00:00 9.8 10 Este 21 Este 0 904.5 -- 54
2021-02-20 10:00:00 3.7 3 Sudeste 16 Este 0 905 -- 92
2021-02-20 09:00:00 0.9 3 Norte 15 Nordeste 0 905.4 0.4 95
2021-02-20 08:00:00 0.5 2 Norte 15 Nordeste 0 905.2 -- 94
2021-02-20 07:00:00 1.2 3 Sudoeste 13 Nordeste 0 905.2 -- 93
2021-02-20 06:00:00 0.9 3 Noroeste 14 Sudoeste 0 905 -- 96
2021-02-20 05:00:00 0.6 2 Noroeste 14 Nordeste 0 905 -- 95
2021-02-20 04:00:00 0.7 2 Norte 14 Este 0 905.2 -0.9 94
2021-02-20 03:00:00 0.9 4 Noroeste 13 Nordeste 0 905.6 -- 93
2021-02-20 02:00:00 1.1 3 Noroeste 8 Noroeste 0 906 -- 93
2021-02-20 01:00:00 1.5 0 Calma 14 Nordeste 0 906.1 -- 91
2021-02-20 00:00:00 1.9 3 Noroeste 15 Nordeste 0 906.4 -- 90
2021-02-19 23:00:00 2.6 3 Oeste 6 Oeste 0 906.2 0.8 87
2021-02-19 22:00:00 3 2 Noroeste 6 Noroeste 0 906.1 -- 87
2021-02-19 21:00:00 3.5 2 Noroeste 5 Noroeste 0 905.5 -- 86
2021-02-19 20:00:00 4.9 0 Calma 13 Nordeste 0 905.4 -- 80
2021-02-19 19:00:00 6.7 2 Noroeste 4 Norte 0 904.9 -- 73
2021-02-19 18:00:00 10.7 3 Sudoeste 23 Este 0 904.4 -- 57
2021-02-19 17:00:00 12.9 10 Este 22 Sudeste 0 904.3 -0.7 39
2021-02-19 16:00:00 13.5 8 Sudeste 22 Este 0 904.2 -- 39
2021-02-19 15:00:00 13.5 8 Sudeste 23 Sudeste 0 904.5 -- 39
2021-02-19 14:00:00 14 8 Sudeste 29 Sur 0 905 -- 37
2021-02-19 13:00:00 14.7 10 Sudeste 28 Sur 0 905.9 -- 36
2021-02-19 12:00:00 13.1 7 Sudeste 21 Este 0 906 -- 47
2021-02-19 11:00:00 8.5 5 Sudeste 12 Este 0 906.3 -- 65
2021-02-19 10:00:00 3 0 Calma 13 Nordeste 0 906.6 -- 95
2021-02-19 09:00:00 0.6 3 Noroeste 13 Nordeste 0 906.6 -- 96
2021-02-19 08:00:00 0.3 0 Calma 14 Nordeste 0 906.1 -- 96
2021-02-19 07:00:00 0.7 3 Noroeste 14 Nordeste 0 906 -- 96
2021-02-19 06:00:00 0.9 2 Noroeste 15 Nordeste 0 905.7 -- 94
2021-02-19 05:00:00 1.4 2 Noroeste 14 Nordeste 0 905.5 -- 94
2021-02-19 04:00:00 1.9 3 Noroeste 5 Norte 0 905.6 -- 92
2021-02-19 03:00:00 2.3 3 Noroeste 14 Nordeste 0 905.5 -- 93
2021-02-19 02:00:00 2.6 0 Calma 4 Norte 0 905.4 -- 90
2021-02-19 01:00:00 3.3 0 Calma 14 Nordeste 0 905.5 -- 89
2021-02-19 00:00:00 3.6 2 Noroeste 4 Norte 0 905.5 -- 86
2021-02-18 23:00:00 4.9 0 Calma 13 Nordeste 0 905.5 -- 80
2021-02-18 22:00:00 6.3 2 Noroeste 16 Nordeste 0 904.9 -- 77
2021-02-18 21:00:00 6.5 2 Noroeste 5 Noroeste 0 904.7 -- 74
2021-02-18 20:00:00 6.5 3 Norte 6 Noroeste 0 904.4 -- 72
2021-02-18 19:00:00 7.6 2 Norte 12 Sudeste 0 903.9 -- 67
2021-02-18 18:00:00 12.7 8 Sudeste 31 Este 0 903.2 -- 42
2021-02-18 17:00:00 12.4 5 Sudeste 28 Este 0 902.9 -- 50
2021-02-18 16:00:00 14.3 6 Sudeste 35 Este 0 902.8 -- 33
2021-02-18 15:00:00 16.4 12 Sudeste 35 Sur 0 903 -- 30
2021-02-18 14:00:00 16.2 12 Sudeste 36 Este 0 903.5 -- 32
2021-02-18 13:00:00 14.3 13 Sudeste 44 Este 0 904.2 -- 36
2021-02-18 12:00:00 13.7 14 Este 33 Este 0 904.3 -- 35
2021-02-18 11:00:00 8.5 8 Este 19 Este 0 904.4 -- 67
2021-02-18 10:00:00 3.8 2 Sur 13 Nordeste 0 905 -- 97
2021-02-18 09:00:00 1.4 2 Noroeste 14 Nordeste 0 905.1 -- 97
2021-02-18 08:00:00 1.3 3 Noroeste 14 Nordeste 0 905.1 -- 97
2021-02-18 07:00:00 1.6 2 Noroeste 6 Norte 0 905.3 -- 97
2021-02-18 06:00:00 2.4 0 Calma 14 Nordeste 0 905.5 -- 97
2021-02-18 05:00:00 2.8 2 Norte 6 Noroeste 0 905.6 -- 96
2021-02-18 04:00:00 3.5 2 Noroeste 7 Noroeste 0 905.8 -- 96
2021-02-18 03:00:00 3.8 2 Noroeste 14 Nordeste 0 906 -- 94
2021-02-18 02:00:00 4.5 3 Noroeste 6 Norte 0 906.1 -- 92
2021-02-18 01:00:00 5.4 2 Norte 12 Sudeste 0 906.3 -- 89
2021-02-18 00:00:00 7.4 4 Sudeste 14 Sudeste 0 906.6 -- 84
2021-02-17 23:00:00 8.2 4 Sudeste 16 Este 0 906.6 -- 82
2021-02-17 22:00:00 8.8 5 Sudeste 23 Sudeste 0 906.7 -- 80
2021-02-17 21:00:00 9.3 5 Sudeste 19 Sur 0 906.4 -- 78
2021-02-17 20:00:00 9.9 10 Sudeste 21 Sur 0 906.4 -- 72
2021-02-17 19:00:00 10 6 Sudeste 21 Este 0 906.4 -- 69
2021-02-17 18:00:00 11.2 4 Sudeste 19 Este 0 906.6 -- 63
2021-02-17 17:00:00 11.9 6 Sudeste 24 Sudeste 0 906.6 -- 56
2021-02-17 16:00:00 13.2 6 Sudeste 15 Este 0 906.8 -- 48
2021-02-17 15:00:00 14.2 7 Sudeste 21 Sudeste 0 907 -- 42
2021-02-17 14:00:00 12.8 6 Sudeste 18 Sudeste 0 907.8 -- 47
2021-02-17 13:00:00 11.9 9 Sudeste 19 Sur 0 908.6 -- 53
2021-02-17 12:00:00 8.5 5 Este 21 Este 0 909.2 -- 69
2021-02-17 11:00:00 6 0 Calma 13 Nordeste 0 909.6 -- 75
2021-02-17 10:00:00 4.1 4 Noroeste 11 Norte 0 909.6 -- 86
2021-02-17 09:00:00 2.1 3 Norte 15 Noroeste 0 909.6 -- 91
2021-02-17 08:00:00 1.2 5 Noroeste 14 Nordeste 0 909.4 -- 95
2021-02-17 07:00:00 0.9 0 Calma 14 Nordeste 0 909.4 -- 95
2021-02-17 06:00:00 1.4 4 Noroeste 14 Nordeste 0 909.5 -- 95
2021-02-17 05:00:00 1.6 3 Nordeste 16 Este 0 909.4 -- 93
2021-02-17 04:00:00 2.1 2 Norte 14 Nordeste 0 909.6 -- 92
2021-02-17 03:00:00 2.3 4 Oeste 14 Nordeste 0 909.7 -- 92
2021-02-17 02:00:00 2.6 3 Noroeste 12 Norte 0 909.6 -- 91
2021-02-17 01:00:00 2.7 0 Calma 14 Nordeste 0 909.7 -- 92
2021-02-17 00:00:00 3.5 4 Noroeste 14 Nordeste 0 909.7 -- 91
2021-02-16 23:00:00 3.9 2 Noroeste 8 Norte 0 909.5 -- 90
2021-02-16 22:00:00 4.9 2 Este 9 Oeste 0 909.4 -- 88
2021-02-16 21:00:00 6.2 2 Este 8 Este 0 909.4 -- 83
2021-02-16 20:00:00 7.3 3 Norte 17 Este 0 909.3 -- 79
2021-02-16 19:00:00 9.6 7 Sudeste 24 Este 0 909 -- 70
2021-02-16 18:00:00 10.9 7 Sudeste 18 Este 0 908.9 -- 66
2021-02-16 17:00:00 12.4 8 Sudeste 22 Este 0 909.1 -- 58
2021-02-16 16:00:00 13.1 11 Este 22 Sur 0 909.4 -- 53
2021-02-16 15:00:00 13.9 11 Sudeste 32 Este 0 909.7 -- 51
2021-02-16 14:00:00 12.4 12 Sudeste 30 Este 0 910 -- 51
2021-02-16 13:00:00 10.1 11 Sudeste 30 Este 0 910.9 -- 55
2021-02-16 12:00:00 8.3 8 Sudeste 25 Sudeste 0 911.8 -- 61
2021-02-16 11:00:00 5 4 Sudeste 13 Sur 0 912.2 -- 72
2021-02-16 10:00:00 1.6 2 Oeste 14 Nordeste 0 912.6 -- 92
2021-02-16 09:00:00 -0.5 4 Noroeste 15 Norte 0 912.8 -- 97
2021-02-16 08:00:00 -1.1 2 Sudeste 14 Nordeste 0 912.7 -- 95
2021-02-16 07:00:00 -0.4 2 Nordeste 8 Norte 0 912.6 -- 93
2021-02-16 06:00:00 0.6 3 Noroeste 20 Norte 0 913.4 -- 89
2021-02-16 05:00:00 2.3 7 Norte 15 Norte 0 913.8 -- 88
2021-02-16 04:00:00 3.4 4 Oeste 13 Sudoeste 0 914.3 -- 85
2021-02-16 03:00:00 3.9 5 Noroeste 13 Noroeste 0 914.9 -- 84
2021-02-16 02:00:00 4 2 Noroeste 11 Noroeste 0 915.4 -- 86
2021-02-16 01:00:00 4.5 3 Noroeste 10 Noroeste 0 915.7 -- 82
2021-02-16 00:00:00 5.4 4 Noroeste 8 Noroeste 0 915.9 -- 82
2021-02-15 23:00:00 5.7 2 Noroeste 7 Noroeste 0 916.3 -- 84
2021-02-15 22:00:00 5.9 3 Noroeste 13 Nordeste 0 916.5 -- 84
2021-02-15 21:00:00 6.1 2 Noroeste 17 Oeste 0 916.4 -- 82
2021-02-15 20:00:00 6.1 4 Noroeste 8 Noroeste 0 916.3 -- 83
2021-02-15 19:00:00 6.1 2 Noroeste 13 Nordeste 0 916.3 -- 86
2021-02-15 18:00:00 7.2 6 Sudeste 18 Este 0 915.9 -- 78
2021-02-15 17:00:00 7.9 9 Este 21 Este 0 915.6 -- 74
2021-02-15 16:00:00 8.4 8 Sudeste 25 Sudeste 0 915.7 -- 71
2021-02-15 15:00:00 9.3 9 Sudeste 24 Sudeste 0 916.1 -- 68
2021-02-15 14:00:00 9.6 8 Sudeste 22 Sur 0 916.6 -- 67
2021-02-15 13:00:00 8.8 8 Sudeste 23 Sur 0 917.2 -- 71
2021-02-15 12:00:00 8.9 8 Sudeste 17 Sudeste 0 917.5 -- 66
2021-02-15 11:00:00 6.6 3 Este 9 Este 0 917.9 -- 76
2021-02-15 10:00:00 5.5 2 Sudeste 13 Nordeste 0 917.7 -- 80
2021-02-15 09:00:00 4.1 2 Norte 12 Noroeste 0 917.4 -- 87
2021-02-15 08:00:00 3.5 2 Noroeste 13 Nordeste 0 916.9 -- 95
2021-02-15 07:00:00 3.7 0 Calma 14 Nordeste 0 916.8 -- 94
2021-02-15 06:00:00 3.9 0 Calma 13 Nordeste 0 917 -- 94
2021-02-15 05:00:00 4.1 0 Calma 4 Noroeste 0 916.9 -- 94
2021-02-15 04:00:00 4.1 0 Calma 15 Sudeste 0 917.4 -- 94
2021-02-15 03:00:00 4.1 5 Este 10 Este 0 917.9 -- 94
2021-02-15 02:00:00 4.2 5 Sudeste 17 Sudeste 0 917.8 -- 94
2021-02-15 01:00:00 4.5 5 Sudeste 16 Sur 0 917.6 -- 92
2021-02-15 00:00:00 4.8 4 Sudeste 16 Sur 0 917.3 -- 91
2021-02-14 23:00:00 5.3 3 Sudeste 12 Sur 0 917.1 -- 90
2021-02-14 22:00:00 5.6 5 Sudeste 14 Sur 0 917.2 -- 89
2021-02-14 21:00:00 6.1 4 Sudeste 13 Sur 0 916.9 -- 87
2021-02-14 20:00:00 6.5 3 Sur 12 Sudeste 0 916.8 -- 82
2021-02-14 19:00:00 6.9 2 Sur 15 Sur 0 916.2 1 77
2021-02-14 18:00:00 7.5 5 Sudeste 30 Este 0 915.8 0.9 71
2021-02-14 17:00:00 8 10 Sudeste 32 Este 0 915.6 -- 67
2021-02-14 16:00:00 8.8 5 Sudeste 26 Este 0 915.2 -- 65
2021-02-14 15:00:00 11.4 9 Sudeste 27 Este 0 914.9 -- 54
2021-02-14 14:00:00 11.3 10 Sudeste 27 Sudeste 0 915.5 -- 51
2021-02-14 13:00:00 10.7 9 Sudeste 21 Sur 0 915.7 -- 49
2021-02-14 12:00:00 7.9 6 Este 14 Este 0 916 -- 59
2021-02-14 11:00:00 3.9 3 Sudeste 16 Sudeste 0 916.2 -- 72
2021-02-14 10:00:00 0 2 Sur 14 Este 0 915.8 -- 91
2021-02-14 09:00:00 -1.6 0 Calma 14 Nordeste 0 915.4 -- 93
2021-02-14 08:00:00 -1.8 0 Calma 13 Nordeste 0 914.6 -- 92
2021-02-14 07:00:00 -1.7 2 Norte 14 Nordeste 0 914 -- 93
2021-02-14 06:00:00 -1.5 0 Calma 14 Nordeste 0 913.6 -- 91
2021-02-14 05:00:00 -1.3 2 Noroeste 14 Nordeste 0 912.9 -- 91
2021-02-14 04:00:00 -0.6 0 Calma 17 Norte 0 912.8 -- 86
2021-02-14 03:00:00 -0.1 4 Oeste 13 Noroeste 0 912.6 -- 84
2021-02-14 02:00:00 0.1 2 Noroeste 15 Nordeste 0 912.4 -- 85
2021-02-14 01:00:00 0.7 3 Oeste 14 Nordeste 0 912.1 -- 83
2021-02-14 00:00:00 2.6 4 Noroeste 19 Noroeste 0 911.6 -- 73
2021-02-13 23:00:00 4.3 8 Norte 23 Norte 0 911.3 -- 62
2021-02-13 22:00:00 6.1 8 Norte 31 Noroeste 0 910.9 -- 56
2021-02-13 21:00:00 7 15 Noroeste 32 Noroeste 0 910.5 -- 52
2021-02-13 20:00:00 8.1 14 Noroeste 39 Noroeste 0 910 -- 51
2021-02-13 19:00:00 8 14 Noroeste 31 Noroeste 0 909.3 -- 50
2021-02-13 18:00:00 10.1 12 Noroeste 27 Noroeste 0 908.5 -- 44
2021-02-13 17:00:00 11.8 13 Noroeste 32 Noroeste 0 907.6 -- 37
2021-02-13 16:00:00 12.2 11 Noroeste 32 Noroeste 0 907.3 -- 30
2021-02-13 15:00:00 13.4 6 Sudeste 18 Sur 0 907.1 -- 40
2021-02-13 14:00:00 14.5 8 Sudeste 22 Sur 0 907.4 -- 39
2021-02-13 13:00:00 12.9 9 Sur 25 Sur 0 907.4 -- 42
2021-02-13 08:00:00 3.2 2 Noroeste 22 Noroeste 0 907.7 1.7 78
2021-02-13 07:00:00 4.4 9 Noroeste 21 Noroeste 0 907.1 1.4 69
2021-02-13 06:00:00 5.6 9 Norte 25 Noroeste 0 906.6 0.6 63
2021-02-13 05:00:00 5.1 14 Noroeste 25 Noroeste 0 906 0.7 67
2021-02-13 04:00:00 4.8 10 Noroeste 25 Noroeste 0 905.7 1 69
2021-02-13 03:00:00 6.8 8 Noroeste 31 Noroeste 0 906 1.4 60
2021-02-13 02:00:00 7.8 12 Noroeste 41 Noroeste 0 905.3 1.2 55
2021-02-13 01:00:00 8.4 22 Noroeste 54 Noroeste 0 904.7 1.6 50
2021-02-13 00:00:00 8 21 Noroeste 50 Noroeste 0 904.6 2.2 55
2021-02-12 23:00:00 7.7 20 Noroeste 49 Noroeste 0 904.1 2.1 59
2021-02-12 22:00:00 8.4 20 Noroeste 43 Noroeste 0.2 903.1 2 59
2021-02-12 21:00:00 7.7 13 Noroeste 41 Noroeste 0 902.4 2 67
2021-02-12 20:00:00 6.1 0 Calma 8 Oeste 0 902 1.8 95
2021-02-12 19:00:00 6.7 3 Sudoeste 6 Sudoeste 0.2 901.1 1 93
2021-02-12 18:00:00 7.8 4 Noroeste 14 Nordeste 0.2 900.4 0.1 91
2021-02-12 17:00:00 9.2 4 Norte 15 Nordeste 0 900.2 -0.7 87
2021-02-12 16:00:00 8.9 3 Noroeste 18 Oeste 0 900.1 -0.8 86
2021-02-12 15:00:00 8.8 0 Calma 18 Noroeste 1.8 900.3 -1.2 91
2021-02-12 14:00:00 9.3 4 Noroeste 19 Noroeste 0 900.9 -0.6 83
2021-02-12 13:00:00 8.1 3 Norte 8 Noroeste 0 900.9 -0.7 91
2021-02-12 12:00:00 6.6 0 Calma 12 Noroeste 0.4 901.5 -0.1 95
2021-02-12 11:00:00 5.5 3 Oeste 16 Este 0.8 901.5 -0.2 96
2021-02-12 10:00:00 4.7 3 Sudeste 14 Norte 0.6 901.6 -0.4 95
2021-02-12 09:00:00 3.8 3 Noroeste 8 Oeste 0 901.6 -- 94
2021-02-12 08:00:00 3.3 3 Noroeste 11 Norte 0 901.7 -- 94
2021-02-12 07:00:00 3.2 2 Noroeste 13 Oeste 0 902 -- 92
2021-02-12 06:00:00 2.9 4 Noroeste 17 Oeste 0 902.7 -- 92
2021-02-12 05:00:00 2.4 4 Noroeste 14 Nordeste 0 903 -- 93
2021-02-12 04:00:00 2.5 0 Calma 10 Noroeste 0 903.4 -- 92
2021-02-12 03:00:00 2.5 4 Noroeste 14 Noroeste 0 904 -- 92
2021-02-12 02:00:00 2.5 3 Noroeste 12 Noroeste 0 904.2 -- 93
2021-02-12 01:00:00 2.2 4 Noroeste 16 Oeste 0 904.5 -- 93
2021-02-12 00:00:00 1.6 3 Noroeste 18 Norte 0 904.7 -- 93
2021-02-11 23:00:00 1.6 4 Noroeste 21 Norte 0 905.2 -- 93
2021-02-11 22:00:00 2.3 7 Noroeste 18 Noroeste 0 905.2 -- 92
2021-02-11 21:00:00 2.1 6 Noroeste 17 Norte 0 905 -- 92
2021-02-11 20:00:00 2.5 5 Noroeste 19 Noroeste 0 904.6 -- 90
2021-02-11 19:00:00 3.2 4 Noroeste 15 Noroeste 0 904.3 -- 89
2021-02-11 18:00:00 4 3 Noroeste 16 Norte 0 903.6 -- 87
2021-02-11 17:00:00 5 4 Noroeste 15 Norte 0 903 -- 87
2021-02-11 16:00:00 5.5 3 Noroeste 8 Noroeste 0 902.7 -- 84
2021-02-11 15:00:00 8.6 4 Oeste 10 Sur 0 902.7 -- 74
2021-02-11 14:00:00 9.1 3 Sudoeste 8 Noroeste 0 902.9 -- 72
2021-02-11 13:00:00 8.1 4 Noroeste 16 Sudoeste 0 903 -- 70
2021-02-11 12:00:00 6.4 2 Sudoeste 14 Nordeste 0 903.2 -- 77
2021-02-11 11:00:00 4.1 0 Calma 16 Norte 0 903.1 -- 80
2021-02-11 10:00:00 0.5 6 Noroeste 14 Noroeste 0 903.4 -- 91
2021-02-11 09:00:00 -1.5 6 Noroeste 21 Norte 0 903 -- 93
2021-02-11 08:00:00 -1.6 6 Noroeste 15 Norte 0 902.8 -- 93
2021-02-11 07:00:00 -1.5 4 Noroeste 18 Norte 0 902.9 -- 94
2021-02-11 06:00:00 -1.6 4 Noroeste 15 Norte 0 902.6 -- 96
2021-02-11 05:00:00 -1.6 0 Calma 18 Norte 0 902.5 -- 97
2021-02-11 04:00:00 -1.5 3 Noroeste 15 Este 0 902.4 -- 98
2021-02-11 03:00:00 -1.3 4 Norte 15 Norte 0 902.5 -- 98
2021-02-11 02:00:00 -1.3 2 Norte 14 Nordeste 0 902.6 -- 98
2021-02-11 01:00:00 -1.1 3 Noroeste 16 Nordeste 0 901.9 -- 98
2021-02-11 00:00:00 -0.7 3 Noroeste 12 Noroeste 0 901.1 -- 98
2021-02-10 23:00:00 -0.6 4 Noroeste 13 Nordeste 0 900.6 -- 98
2021-02-10 22:00:00 -0.2 3 Noroeste 15 Norte 0 900.2 -- 98
2021-02-10 21:00:00 0.2 2 Noroeste 15 Nordeste 0 899.5 -- 97
2021-02-10 20:00:00 0.8 2 Norte 15 Nordeste 0 899.2 -- 96
2021-02-10 19:00:00 2.1 2 Oeste 18 Noroeste 0 898.1 -- 92
2021-02-10 18:00:00 2.9 4 Noroeste 14 Nordeste 0 897.1 -- 93
2021-02-10 17:00:00 4.3 4 Noroeste 9 Noroeste 0 895.9 -- 89
2021-02-10 16:00:00 5.8 5 Noroeste 16 Noroeste 0 895.6 -- 75
2021-02-10 15:00:00 7 6 Oeste 21 Noroeste 0 894.4 -- 67
2021-02-10 14:00:00 10.1 4 Sur 12 Sur 0.2 893.4 -- 63
2021-02-10 13:00:00 7.8 4 Sur 8 Sudeste 1 892.8 -- 69
2021-02-10 12:00:00 6.3 2 Sudoeste 13 Noroeste 2 892 -- 74
2021-02-10 11:00:00 4.9 6 Norte 16 Norte 1.8 890.9 -- 79
2021-02-10 10:00:00 2.2 8 Norte 17 Noroeste 1 890.2 -- 97
2021-02-10 09:00:00 0.9 0 Calma 6 Este 0.8 889.5 -- 98
2021-02-10 08:00:00 0.6 2 Nordeste 14 Nordeste 1 888.6 -- 98
2021-02-10 07:00:00 0.6 2 Nordeste 8 Este 0.8 887.8 -- 98
2021-02-10 06:00:00 0.7 3 Sur 16 Este 0.8 887.8 -- 98
2021-02-10 05:00:00 0.7 5 Nordeste 19 Este 1 887.6 -- 98
2021-02-10 04:00:00 0.8 3 Nordeste 18 Sudoeste 2 888.1 -- 98
2021-02-10 03:00:00 0.8 3 Noroeste 14 Este 1.2 888.2 -- 98
2021-02-10 02:00:00 0.4 3 Sudeste 8 Este 0.8 888.6 -- 98
2021-02-10 01:00:00 0.4 3 Este 6 Norte 0.2 889 -- 98
2021-02-10 00:00:00 0.4 2 Sur 5 Sudeste 0 888.7 -- 98
2021-02-09 23:00:00 0.4 3 Sudeste 14 Nordeste 0 889.2 -- 98
2021-02-09 22:00:00 0.6 4 Este 19 Noroeste 0 888.2 -- 98
2021-02-09 21:00:00 0.4 3 Sudeste 17 Sudeste 0.2 888 -- 98
2021-02-09 20:00:00 0.4 2 Norte 15 Nordeste 0.2 887.8 -- 98
2021-02-09 19:00:00 0.4 6 Este 17 Este 0.2 887.4 -- 97
2021-02-09 18:00:00 0.5 0 Calma 13 Nordeste 0.2 887.9 -- 97
2021-02-09 17:00:00 0.6 4 Este 16 Sudeste 1.8 887.8 -- 97
2021-02-09 16:00:00 1.2 5 Sudeste 29 Sudeste 3 888.3 -- 96
2021-02-09 15:00:00 2 9 Sudeste 25 Sur 2.2 888.6 -- 95
2021-02-09 14:00:00 2.9 8 Sudeste 28 Sudeste 1.2 889.2 -- 95
2021-02-09 13:00:00 2.6 12 Sudeste 32 Sur 2.2 889.9 -- 97
2021-02-09 12:00:00 2.7 5 Sudeste 21 Este 0.6 890.9 -- 97
2021-02-09 11:00:00 2.1 5 Sudeste 15 Sudeste 1 891.1 -- 97
2021-02-09 10:00:00 0.8 3 Norte 14 Nordeste 1.2 891.5 -- 98
2021-02-09 09:00:00 0.6 3 Sudeste 6 Norte 0 891.8 -- 98
2021-02-09 08:00:00 0.2 2 Nordeste 14 Nordeste 0 891.5 -- 98
2021-02-09 07:00:00 -0.1 3 Norte 14 Nordeste 0 891.5 -- 98
2021-02-09 06:00:00 -0.1 2 Noroeste 14 Nordeste 0 891.3 -- 98
2021-02-09 05:00:00 -0.2 4 Noroeste 12 Nordeste 0 891.1 -- 98
2021-02-09 04:00:00 0.5 2 Noroeste 11 Norte 0 891.7 -- 98
2021-02-09 03:00:00 0.1 2 Sudeste 12 Norte 0 891.5 -- 98
2021-02-09 02:00:00 0.1 4 Noroeste 14 Nordeste 0 890.9 -- 98
2021-02-09 01:00:00 -0.4 2 Norte 14 Nordeste 0 890.2 -- 98
2021-02-09 00:00:00 -0.1 0 Calma 10 Norte 0 889.8 -- 97
2021-02-08 23:00:00 0.1 3 Noroeste 14 Nordeste 0 889 -- 97
2021-02-08 22:00:00 1 0 Calma 14 Nordeste 0 888.5 -- 96
2021-02-08 21:00:00 1.7 3 Norte 6 Noroeste 0 887.7 -- 96
2021-02-08 20:00:00 2.9 3 Este 12 Norte 0 887.3 -- 94
2021-02-08 19:00:00 4 0 Calma 13 Nordeste 0 886.5 -- 92
2021-02-08 18:00:00 5.6 0 Calma 11 Norte 0 885.5 -- 87
2021-02-08 17:00:00 5.3 6 Sudeste 16 Este 0 885.1 -- 82
2021-02-08 16:00:00 5.2 2 Sudoeste 11 Sur 0.2 885 -- 86
2021-02-08 15:00:00 4.2 5 Sudeste 25 Sudeste 0.4 885 -- 89
2021-02-08 14:00:00 4.2 12 Sudeste 30 Este 0.4 885.2 -- 88
2021-02-08 13:00:00 3.9 3 Sudeste 9 Este 0 885.6 -- 94
2021-02-08 12:00:00 3.7 2 Sudeste 14 Sudoeste 0 886.3 -- 95
2021-02-08 11:00:00 2.5 0 Calma 13 Este 0 886.4 -- 97
2021-02-08 10:00:00 1.6 3 Sudeste 14 Nordeste 0.2 886.5 -- 97
2021-02-08 09:00:00 0.9 2 Norte 13 Nordeste 0.2 886.7 -- 97
2021-02-08 08:00:00 0.8 4 Noroeste 8 Norte 0.2 886.2 -- 97
2021-02-08 07:00:00 0.6 0 Calma 14 Nordeste 0.2 886.8 -- 96
2021-02-08 06:00:00 0.8 0 Calma 6 Noroeste 0 887.5 -- 94
2021-02-08 05:00:00 0.5 0 Calma 13 Noroeste 0 887.5 -- 94
2021-02-08 04:00:00 -0.2 0 Calma 14 Nordeste 0 887.7 -- 94
2021-02-08 03:00:00 0.4 3 Noroeste 16 Nordeste 0 888 -- 94
2021-02-08 02:00:00 0.2 4 Noroeste 13 Nordeste 0 888 -- 93
2021-02-08 01:00:00 0.4 2 Noroeste 14 Nordeste 0 888.7 -- 92
2021-02-08 00:00:00 1.5 3 Noroeste 13 Nordeste 0 888.8 -- 88
2021-02-07 23:00:00 2.5 2 Noroeste 13 Nordeste 0 889.2 -- 84
2021-02-07 22:00:00 3.2 3 Noroeste 9 Noroeste 0 889.2 -- 81
2021-02-07 21:00:00 4 3 Noroeste 8 Norte 0 889.1 -- 79
2021-02-07 20:00:00 4.1 2 Noroeste 8 Noroeste 0 889 -- 79
2021-02-07 19:00:00 4.7 3 Noroeste 11 Noroeste 0 888.8 -- 72
2021-02-07 18:00:00 6.6 4 Norte 19 Este 0 888.6 -- 60
2021-02-07 17:00:00 7.7 5 Sudeste 15 Este 0 888.4 -- 50
2021-02-07 16:00:00 7 2 Noroeste 16 Noroeste 0 888.5 -- 55
2021-02-07 15:00:00 8.2 11 Noroeste 33 Noroeste 0 888.4 -- 33
2021-02-07 14:00:00 8.9 9 Oeste 39 Noroeste 0 888.9 -- 37
2021-02-07 13:00:00 9.1 13 Noroeste 31 Noroeste 0 889.4 -- 32
2021-02-07 12:00:00 7.7 15 Noroeste 37 Norte 0 889.9 -- 32
2021-02-07 11:00:00 6.3 14 Noroeste 28 Noroeste 0 890.1 -- 36
2021-02-07 10:00:00 4.1 12 Noroeste 30 Noroeste 0 890.2 -- 39
2021-02-07 09:00:00 2.9 14 Noroeste 32 Noroeste 0 890.4 -- 43
2021-02-07 08:00:00 3 18 Noroeste 38 Noroeste 0 890 -- 58
2021-02-07 07:00:00 3.6 15 Noroeste 34 Noroeste 0 889.5 -- 59
2021-02-07 06:00:00 3 12 Noroeste 27 Noroeste 0 889.3 -- 83
2021-02-07 05:00:00 4.3 12 Noroeste 25 Noroeste 0 889.1 -- 76
2021-02-07 04:00:00 4 8 Noroeste 19 Norte 0 889.1 -- 89
2021-02-07 03:00:00 4 2 Noroeste 15 Norte 0 889.4 -- 92
2021-02-07 02:00:00 4.5 5 Noroeste 21 Norte 0 889.3 -- 89
2021-02-07 01:00:00 4.4 3 Noroeste 10 Noroeste 0 889.4 -- 94
2021-02-07 00:00:00 5 7 Norte 22 Norte 0 889.5 -- 90
2021-02-06 23:00:00 4.9 4 Noroeste 9 Norte 0 889.5 -- 96
2021-02-06 22:00:00 5.1 0 Calma 14 Nordeste 0 889.5 -- 96
2021-02-06 21:00:00 5.1 0 Calma 4 Este 0 889.5 -- 95
2021-02-06 20:00:00 5.4 0 Calma 12 Sudeste 0 889.4 -- 93
2021-02-06 19:00:00 6.3 4 Sudeste 15 Este 2.8 889 -- 94
2021-02-06 18:00:00 6.7 3 Este 14 Sudeste 0 888.1 -- 92
2021-02-06 17:00:00 7.2 5 Sudeste 15 Este 0 888 -- 93
2021-02-06 16:00:00 7.3 4 Sur 18 Sudeste 2.8 888.1 -- 87
2021-02-06 15:00:00 7.5 3 Sudoeste 18 Este 2.4 888 -- 88
2021-02-06 14:00:00 8 6 Sudeste 20 Sudeste 0 888.1 -- 81
2021-02-06 13:00:00 6.8 8 Sudeste 25 Sudeste 0 888.7 -- 88
2021-02-06 12:00:00 6.3 5 Sudeste 15 Este 0 889.2 -- 94
2021-02-06 11:00:00 -- 8 Sudeste 31 Sudeste 5.4 889.7 -- 86
2021-02-06 10:00:00 7.1 7 Sudeste 25 Este 0.6 889.1 -- 82
2021-02-06 09:00:00 7 5 Sur 20 Sudeste 0.2 888.7 -- 80
2021-02-06 08:00:00 6.2 3 Noroeste 12 Sudoeste 0 888.5 -- 89
2021-02-06 07:00:00 6.2 3 Noroeste 14 Noroeste 0 888.1 -- 87
2021-02-06 06:00:00 7.1 6 Norte 23 Noroeste 0 888.9 -- 82
2021-02-06 05:00:00 6.9 8 Noroeste 18 Norte 0.2 890.9 -- 89
2021-02-06 04:00:00 7.4 3 Norte 12 Noroeste 0.2 892.2 -- 84
2021-02-06 03:00:00 7.9 3 Noroeste 17 Nordeste 0 892.7 -- 70
2021-02-06 02:00:00 7.6 3 Noroeste 20 Oeste 0 893.2 -- 67
2021-02-06 01:00:00 7.6 8 Noroeste 17 Noroeste 0 893.7 -- 67
2021-02-06 00:00:00 6.9 4 Noroeste 14 Nordeste 0 894.4 -- 75
2021-02-05 23:00:00 6.8 2 Norte 17 Noroeste 0 894.3 -- 78
2021-02-05 22:00:00 6.4 3 Oeste 8 Noroeste 0 894.2 -- 82
2021-02-05 21:00:00 6.6 4 Noroeste 12 Norte 0 894.2 -- 82
2021-02-05 20:00:00 8 4 Oeste 14 Noroeste 0 894.2 -- 75
2021-02-05 19:00:00 9.4 2 Noroeste 16 Norte 0 894 -- 71
2021-02-05 18:00:00 11.2 6 Norte 13 Norte 0 893.4 -- 64
2021-02-05 17:00:00 11.9 3 Noroeste 8 Oeste 0 893.7 -- 73
2021-02-05 16:00:00 12.6 3 Noroeste 6 Noroeste 0 894.3 -- 71
2021-02-05 15:00:00 13.5 3 Noroeste -- -- 0 894.7 -- 67
2021-02-05 14:00:00 15.3 3 Sudoeste 18 Sudeste 0 895.3 -- 51
2021-02-05 13:00:00 16.6 6 Sudeste 19 Sur 0 895.8 -- 40
2021-02-05 12:00:00 12.4 8 Noroeste 22 Norte 0 897 -- 71
2021-02-05 11:00:00 9.2 6 Noroeste 14 Noroeste 0 897.3 -- 83
2021-02-05 10:00:00 6.6 4 Noroeste 15 Noroeste 0 897.6 -- 92
2021-02-05 09:00:00 5.5 5 Noroeste 13 Noroeste 0 897.9 -- 95
2021-02-05 08:00:00 5 3 Oeste 13 Norte 0 898.3 -- 95
2021-02-05 07:00:00 5.1 4 Norte 15 Norte 0 898.4 -- 95
2021-02-05 06:00:00 5.7 5 Noroeste 16 Noroeste 0 898.7 -- 93
2021-02-05 05:00:00 6.4 5 Noroeste 19 Norte 0 899.2 -- 94
2021-02-05 04:00:00 7 15 Norte 28 Norte 0.2 899.5 -- 91
2021-02-05 03:00:00 6.7 7 Noroeste 17 Norte 0.4 900.5 -- 92
2021-02-05 02:00:00 6.1 4 Norte 8 Oeste 0.2 900.2 -- 94
2021-02-05 01:00:00 5.9 3 Noroeste 10 Oeste 0 900.1 -- 88
2021-02-05 00:00:00 5.6 4 Noroeste 9 Noroeste 0 900.4 -- 90
2021-02-04 23:00:00 5.6 2 Noroeste 14 Nordeste 0 899.9 -- 90
2021-02-04 22:00:00 5.5 3 Noroeste 9 Noroeste 0 899.7 -- 90
2021-02-04 21:00:00 5.9 2 Noroeste 16 Sudoeste 0 899.2 -- 88
2021-02-04 20:00:00 7.3 3 Noroeste 12 Noroeste 0 898.7 -- 84
2021-02-04 19:00:00 8.6 3 Noroeste 14 Sudoeste 0 898.1 -- 80
2021-02-04 18:00:00 11.6 4 Sur 23 Sudeste 0 897.6 -- 68
2021-02-04 17:00:00 12.5 7 Este 14 Este 0 897.3 -0.9 64
2021-02-04 16:00:00 13.1 6 Este 20 Sur 0 897.1 -- 60
2021-02-04 15:00:00 13.6 10 Sudeste 24 Sudeste 0 897.7 -- 58
2021-02-04 14:00:00 14.2 8 Sudeste 22 Sudeste 0 898.2 -- 56
2021-02-04 13:00:00 12.7 7 Sudeste 22 Este 0 899.1 -- 61
2021-02-04 12:00:00 12 3 Sur 16 Sudoeste 0 900.1 -- 63
2021-02-04 11:00:00 11.1 3 Este 7 Este 0 900.1 -- 65
2021-02-04 10:00:00 7.5 0 Calma 5 Oeste 0 900.3 -- 90
2021-02-04 09:00:00 6.3 2 Sur 5 Oeste 0 900.5 -- 93
2021-02-04 08:00:00 6.1 2 Noroeste 5 Norte 0 900.1 -- 93
2021-02-04 07:00:00 6 3 Norte 11 Oeste 0 899.9 -- 93
2021-02-04 06:00:00 6.1 0 Calma 5 Sudeste 0 900.1 -- 93
2021-02-04 05:00:00 6 2 Norte 15 Sudeste 0 900 -- 94
2021-02-04 04:00:00 5.6 2 Sudeste 5 Sur 0 900.3 -- 93
2021-02-04 03:00:00 6 2 Sudeste 7 Este 0 900.7 -- 91
2021-02-04 02:00:00 6.5 3 Sudeste 21 Sudeste 0 900.9 -- 88
2021-02-04 01:00:00 7.2 4 Este 9 Este 0 901.1 -- 86
2021-02-04 00:00:00 7.5 3 Este 10 Este 0 901.1 -- 85
2021-02-03 23:00:00 8 5 Este 14 Este 0 900.9 -- 82
2021-02-03 22:00:00 7.8 4 Sudeste 15 Sudeste 0 900.8 -- 85
2021-02-03 21:00:00 7.7 4 Sudeste 16 Sur 0 900.5 -- 86
2021-02-03 20:00:00 8.2 6 Sudeste 19 Sur 0 900.1 -- 81
2021-02-03 19:00:00 9.9 9 Sur 20 Sudeste 0 899.7 -- 76
2021-02-03 18:00:00 10.4 5 Sur 17 Sur 0 899.4 -- 74
2021-02-03 17:00:00 10.3 5 Sudeste 14 Este 0 899.1 -- 75
2021-02-03 16:00:00 11.5 5 Sudeste 19 Este 0 899.2 -- 67
2021-02-03 15:00:00 11.8 8 Sudeste 21 Sudeste 0 899.4 -- 64
2021-02-03 14:00:00 11 6 Sudeste 20 Sudeste 0 899.5 -- 72
2021-02-03 13:00:00 9.2 6 Sudeste 17 Sudeste 0 900 -- 84
2021-02-03 12:00:00 7 4 Sudoeste 14 Nordeste 0 900.5 -- 93
2021-02-03 11:00:00 5.8 0 Calma 15 Sudeste 0 900.7 -- 97
2021-02-03 10:00:00 4 0 Calma 9 Norte 0 900.5 -- 97
2021-02-03 09:00:00 2.2 3 Norte 14 Nordeste 0 900 -- 98
2021-02-03 08:00:00 0.9 3 Noroeste 13 Sudoeste 0 899.4 -- 98
2021-02-03 07:00:00 0.9 3 Sur 8 Oeste 0 899.3 -- 98
2021-02-03 06:00:00 1.2 3 Sudeste 7 Noroeste 0 899.5 -- 98
2021-02-03 05:00:00 1.2 0 Calma 14 Sudeste 0 899.7 -- 98
2021-02-03 04:00:00 1.5 2 Norte 14 Nordeste 0 900.1 -- 97
2021-02-03 03:00:00 2.1 2 Norte 16 Nordeste 0 900.3 -- 97
2021-02-03 02:00:00 2.8 2 Norte 15 Nordeste 0 900.8 -- 97
2021-02-03 01:00:00 3.7 0 Calma 8 Oeste 0 901.3 -- 95
2021-02-03 00:00:00 4.7 0 Calma 13 Nordeste 0 901.2 -- 95
2021-02-02 23:00:00 4.4 3 Norte 8 Noroeste 0 901.4 -- 95
2021-02-02 22:00:00 4.5 0 Calma 14 Nordeste 0 901.4 -- 93
2021-02-02 21:00:00 5 2 Noroeste 8 Noroeste 0 901.4 -- 91
2021-02-02 20:00:00 6.6 3 Noroeste 10 Noroeste 0 901.1 -- 87
2021-02-02 19:00:00 7.3 3 Noroeste 10 Noroeste 0 901.1 -- 86
2021-02-02 18:00:00 9.2 5 Noroeste 13 Noroeste 0 900.1 -- 78
2021-02-02 17:00:00 10 5 Noroeste 13 Noroeste 0 899.9 -- 77
2021-02-02 16:00:00 12.1 2 Noroeste 17 Sudeste 0 900.1 -- 72
2021-02-02 15:00:00 13 5 Sudeste 14 Sudeste 0 900.3 -- 61
2021-02-02 14:00:00 14.7 7 Sudeste 21 Sudeste 0 901 -- 52
2021-02-02 13:00:00 13 8 Sudeste 29 Sur 0 901.5 -- 56
2021-02-02 12:00:00 10.3 5 Sudeste 10 Sur 0 902.2 -- 65
2021-02-02 11:00:00 6.6 4 Este 8 Este 0 902 -- 85
2021-02-02 10:00:00 3 3 Noroeste 14 Nordeste 0 901.9 -- 97
2021-02-02 09:00:00 2.3 3 Noroeste 15 Noroeste 0 901.8 -- 97
2021-02-02 08:00:00 2.3 4 Noroeste 14 Nordeste 0 901 -- 97
2021-02-02 07:00:00 2.5 2 Noroeste 14 Oeste 0 900.8 -- 96
2021-02-02 06:00:00 2.7 2 Norte 8 Noroeste 0 900.3 -- 95
2021-02-02 05:00:00 3.7 3 Noroeste 14 Nordeste 0 900 -- 93
2021-02-02 04:00:00 4.6 4 Noroeste 14 Sudoeste 0 900 -- 92
2021-02-02 03:00:00 6.3 0 Calma 12 Norte 0 900 -- 86
2021-02-02 02:00:00 6.8 5 Noroeste 10 Norte 0 899.7 -- 82
2021-02-02 01:00:00 7.1 4 Este 14 Norte 0 899.3 -- 81
2021-02-02 00:00:00 6.9 2 Norte 10 Noroeste 0 899.1 -- 83
2021-02-01 23:00:00 7.4 3 Sudeste 10 Este 0 899 -- 81
2021-02-01 22:00:00 7.8 4 Sur 13 Este 0 898.5 -- 77
2021-02-01 21:00:00 9.5 3 Sudeste 27 Noroeste 0 898.1 -- 68
2021-02-01 20:00:00 10.9 11 Noroeste 35 Noroeste 0 897.1 -- 55
2021-02-01 19:00:00 11.2 19 Noroeste 47 Noroeste 0 896.5 -- 54
2021-02-01 18:00:00 10.7 19 Noroeste 45 Noroeste 0 895.8 -- 58
2021-02-01 17:00:00 10.9 21 Noroeste 55 Noroeste 0 895.4 -- 58
2021-02-01 16:00:00 10.2 21 Noroeste 54 Noroeste 0 894.7 -- 58
2021-02-01 15:00:00 10.2 14 Noroeste 46 Noroeste 0 894.9 -- 63
2021-02-01 14:00:00 11.5 19 Noroeste 50 Noroeste 0 894.8 -- 52
2021-02-01 13:00:00 11.7 18 Noroeste 45 Noroeste 0 894.4 -- 47
2021-02-01 12:00:00 10.6 4 Sudeste 15 Este 0 894.6 -- 70
2021-02-01 11:00:00 8.2 3 Sudoeste 15 Norte 0 893.6 -- 81
2021-02-01 10:00:00 5.1 6 Norte 17 Oeste 0 893.4 -- 96
2021-02-01 09:00:00 3.8 2 Sudeste 11 Nordeste 0 892.7 -- 97
2021-02-01 08:00:00 3.9 5 Noroeste 18 Norte 0 892 -- 95
2021-02-01 07:00:00 3.8 6 Norte 14 Norte 0.2 891.6 -- 97
2021-02-01 06:00:00 3.3 3 Noroeste 15 Norte 0 891.4 -- 96
2021-02-01 05:00:00 3.5 6 Norte 18 Norte 0.2 891.1 -- 94
2021-02-01 04:00:00 3.6 6 Norte 20 Norte 0.2 891.1 -- 94
2021-02-01 03:00:00 3.9 10 Norte 20 Norte 0.6 891.1 -- 92
2021-02-01 02:00:00 4.4 7 Norte 18 Noroeste 1.4 891 -- 93
2021-02-01 01:00:00 5 4 Noroeste 11 Noroeste 2 891 -- 97
2021-02-01 00:00:00 4.6 2 Este 12 Sudoeste 0.8 891.3 -- 97
2021-01-31 23:00:00 4.1 5 Sudeste 12 Norte 0 890.7 -- 97
2021-01-31 22:00:00 3 3 Norte 8 Este 0 891.5 -- 97
2021-01-31 21:00:00 2.9 3 Noroeste 15 Sudoeste 0 891.8 -- 95
2021-01-31 20:00:00 4.3 4 Sudoeste 14 Sudoeste 0 891.6 -- 93
2021-01-31 19:00:00 5.7 2 Oeste 10 Noroeste 0 891.6 -- 89
2021-01-31 18:00:00 7.8 3 Norte 13 Sudoeste 0 891.2 -- 83
2021-01-31 17:00:00 11.2 4 Sudeste 17 Sudeste 0 890.9 -- 68
2021-01-31 16:00:00 11.4 3 Sur 13 Sudeste 0 890.9 -- 68
2021-01-31 15:00:00 11 8 Sudeste 33 Noroeste 0 891.2 -- 58
2021-01-31 14:00:00 11.6 16 Norte 45 Noroeste 0 891.7 -- 46
2021-01-31 13:00:00 10.6 12 Noroeste 43 Noroeste 0 891.9 -- 41
2021-01-31 12:00:00 10.7 8 Noroeste 40 Noroeste 0 892.1 -- 50
2021-01-31 11:00:00 6.9 5 Sudoeste 23 Este 0 892 -- 83
2021-01-31 10:00:00 3.5 6 Este 16 Norte 0.2 891.6 -- 95
2021-01-31 09:00:00 2.6 6 Norte 17 Norte 0 891.9 -- 97
2021-01-31 08:00:00 1.9 6 Noroeste 19 Norte 1 891.7 -- 97
2021-01-31 07:00:00 1.8 5 Noroeste 12 Noroeste 1.2 891.3 -- 97
2021-01-31 06:00:00 1.4 2 Noroeste 7 Nordeste 0 891.1 -- 97
2021-01-31 05:00:00 1.3 3 Oeste 14 Nordeste 0.4 891 -- 97
2021-01-31 04:00:00 1.5 3 Noroeste 8 Oeste 0.8 891.3 -- 97
2021-01-31 03:00:00 1.9 3 Oeste 8 Noroeste 0.2 891.4 -- 97
2021-01-31 02:00:00 1.9 3 Norte 9 Noroeste 0.2 891.2 -- 97
2021-01-31 01:00:00 2.1 0 Calma 14 Oeste 0.2 891.6 -- 97
2021-01-31 00:00:00 2.1 0 Calma 13 Nordeste 0.2 891.8 -- 97